sensor_id;sensor_type;location;lat;lon;timestamp;temperature;humidity
38514;DHT22;24282;48.400;10.808;2023-02-02T00:01:20;4.70;74.60
38514;DHT22;24282;48.400;10.808;2023-02-02T00:03:46;4.70;75.20
38514;DHT22;24282;48.400;10.808;2023-02-02T00:06:13;4.60;75.20
38514;DHT22;24282;48.400;10.808;2023-02-02T00:08:39;4.60;75.50
38514;DHT22;24282;48.400;10.808;2023-02-02T00:11:08;4.60;75.40
38514;DHT22;24282;48.400;10.808;2023-02-02T00:13:34;4.60;75.60
38514;DHT22;24282;48.400;10.808;2023-02-02T00:18:59;4.70;75.00
38514;DHT22;24282;48.400;10.808;2023-02-02T00:21:25;4.60;75.40
38514;DHT22;24282;48.400;10.808;2023-02-02T00:23:51;4.60;75.30
38514;DHT22;24282;48.400;10.808;2023-02-02T00:26:17;4.70;74.90
38514;DHT22;24282;48.400;10.808;2023-02-02T00:28:43;4.70;74.50
38514;DHT22;24282;48.400;10.808;2023-02-02T00:31:09;4.70;74.80
38514;DHT22;24282;48.400;10.808;2023-02-02T00:33:35;4.60;74.70
38514;DHT22;24282;48.400;10.808;2023-02-02T00:36:01;4.70;74.50
38514;DHT22;24282;48.400;10.808;2023-02-02T00:38:27;4.70;74.60
38514;DHT22;24282;48.400;10.808;2023-02-02T00:40:54;4.70;74.50
38514;DHT22;24282;48.400;10.808;2023-02-02T00:43:19;4.70;74.20
38514;DHT22;24282;48.400;10.808;2023-02-02T00:45:46;4.80;74.30
38514;DHT22;24282;48.400;10.808;2023-02-02T00:48:11;4.70;73.90
38514;DHT22;24282;48.400;10.808;2023-02-02T00:50:37;4.70;74.50
38514;DHT22;24282;48.400;10.808;2023-02-02T00:53:03;4.70;74.50
38514;DHT22;24282;48.400;10.808;2023-02-02T00:55:28;4.70;74.30
38514;DHT22;24282;48.400;10.808;2023-02-02T00:57:54;4.70;74.50
38514;DHT22;24282;48.400;10.808;2023-02-02T01:00:22;4.60;74.50
38514;DHT22;24282;48.400;10.808;2023-02-02T01:02:49;4.60;74.40
38514;DHT22;24282;48.400;10.808;2023-02-02T01:05:15;4.70;74.10
38514;DHT22;24282;48.400;10.808;2023-02-02T01:07:41;4.80;73.90
38514;DHT22;24282;48.400;10.808;2023-02-02T01:10:12;4.80;73.80
38514;DHT22;24282;48.400;10.808;2023-02-02T01:12:39;4.80;73.90
38514;DHT22;24282;48.400;10.808;2023-02-02T01:15:06;4.70;74.00
38514;DHT22;24282;48.400;10.808;2023-02-02T01:17:32;4.70;74.20
38514;DHT22;24282;48.400;10.808;2023-02-02T01:19:58;4.70;73.90
38514;DHT22;24282;48.400;10.808;2023-02-02T01:22:25;4.70;74.00
38514;DHT22;24282;48.400;10.808;2023-02-02T01:24:50;4.70;73.80
38514;DHT22;24282;48.400;10.808;2023-02-02T01:27:17;4.80;73.60
38514;DHT22;24282;48.400;10.808;2023-02-02T01:29:42;4.70;74.10
38514;DHT22;24282;48.400;10.808;2023-02-02T01:32:08;4.70;73.90
38514;DHT22;24282;48.400;10.808;2023-02-02T01:34:35;4.70;74.40
38514;DHT22;24282;48.400;10.808;2023-02-02T01:37:01;4.70;74.30
38514;DHT22;24282;48.400;10.808;2023-02-02T01:39:26;4.80;74.10
38514;DHT22;24282;48.400;10.808;2023-02-02T01:41:52;4.70;74.10
38514;DHT22;24282;48.400;10.808;2023-02-02T01:47:26;4.70;74.20
38514;DHT22;24282;48.400;10.808;2023-02-02T01:49:54;4.80;74.00
38514;DHT22;24282;48.400;10.808;2023-02-02T01:52:22;4.80;74.10
38514;DHT22;24282;48.400;10.808;2023-02-02T01:54:57;4.80;74.10
38514;DHT22;24282;48.400;10.808;2023-02-02T02:00:00;4.70;75.00
38514;DHT22;24282;48.400;10.808;2023-02-02T02:02:28;4.70;74.70
38514;DHT22;24282;48.400;10.808;2023-02-02T02:04:54;4.70;75.00
38514;DHT22;24282;48.400;10.808;2023-02-02T02:07:22;4.80;74.60
38514;DHT22;24282;48.400;10.808;2023-02-02T02:09:48;4.80;74.80
38514;DHT22;24282;48.400;10.808;2023-02-02T02:12:15;4.80;74.70
38514;DHT22;24282;48.400;10.808;2023-02-02T02:14:44;4.80;74.90
38514;DHT22;24282;48.400;10.808;2023-02-02T02:17:45;4.80;74.80
38514;DHT22;24282;48.400;10.808;2023-02-02T02:30:17;4.70;75.60
38514;DHT22;24282;48.400;10.808;2023-02-02T02:35:30;4.60;75.90
38514;DHT22;24282;48.400;10.808;2023-02-02T02:38:08;4.70;75.50
38514;DHT22;24282;48.400;10.808;2023-02-02T02:40:40;4.70;75.70
38514;DHT22;24282;48.400;10.808;2023-02-02T02:43:17;4.70;75.90
38514;DHT22;24282;48.400;10.808;2023-02-02T02:45:47;4.70;76.10
38514;DHT22;24282;48.400;10.808;2023-02-02T02:48:13;4.60;76.30
38514;DHT22;24282;48.400;10.808;2023-02-02T02:50:39;4.70;76.20
38514;DHT22;24282;48.400;10.808;2023-02-02T02:53:13;4.70;76.40
38514;DHT22;24282;48.400;10.808;2023-02-02T02:55:53;4.60;76.90
38514;DHT22;24282;48.400;10.808;2023-02-02T03:06:21;4.60;78.10
38514;DHT22;24282;48.400;10.808;2023-02-02T03:08:54;4.50;78.10
38514;DHT22;24282;48.400;10.808;2023-02-02T03:11:23;4.50;78.60
38514;DHT22;24282;48.400;10.808;2023-02-02T03:13:48;4.60;78.30
38514;DHT22;24282;48.400;10.808;2023-02-02T03:16:15;4.60;78.70
38514;DHT22;24282;48.400;10.808;2023-02-02T03:18:41;4.50;78.90
38514;DHT22;24282;48.400;10.808;2023-02-02T03:21:10;4.50;78.70
38514;DHT22;24282;48.400;10.808;2023-02-02T03:23:35;4.50;78.60
38514;DHT22;24282;48.400;10.808;2023-02-02T03:26:01;4.40;79.10
38514;DHT22;24282;48.400;10.808;2023-02-02T03:28:28;4.40;79.40
38514;DHT22;24282;48.400;10.808;2023-02-02T03:30:55;4.50;79.60
38514;DHT22;24282;48.400;10.808;2023-02-02T03:33:23;4.40;79.60
38514;DHT22;24282;48.400;10.808;2023-02-02T03:35:49;4.40;79.80
38514;DHT22;24282;48.400;10.808;2023-02-02T03:38:14;4.40;79.90
38514;DHT22;24282;48.400;10.808;2023-02-02T03:40:40;4.40;79.80
38514;DHT22;24282;48.400;10.808;2023-02-02T03:43:06;4.40;79.90
38514;DHT22;24282;48.400;10.808;2023-02-02T03:45:32;4.40;80.00
38514;DHT22;24282;48.400;10.808;2023-02-02T03:48:04;4.40;79.50
38514;DHT22;24282;48.400;10.808;2023-02-02T03:50:31;4.50;79.30
38514;DHT22;24282;48.400;10.808;2023-02-02T03:52:56;4.50;79.20
38514;DHT22;24282;48.400;10.808;2023-02-02T03:55:22;4.50;79.20
38514;DHT22;24282;48.400;10.808;2023-02-02T03:57:48;4.50;79.30
38514;DHT22;24282;48.400;10.808;2023-02-02T04:00:14;4.40;79.30
38514;DHT22;24282;48.400;10.808;2023-02-02T04:02:40;4.40;78.90
38514;DHT22;24282;48.400;10.808;2023-02-02T04:05:06;4.50;79.00
38514;DHT22;24282;48.400;10.808;2023-02-02T04:07:31;4.40;78.80
38514;DHT22;24282;48.400;10.808;2023-02-02T04:09:57;4.50;78.40
38514;DHT22;24282;48.400;10.808;2023-02-02T04:12:23;4.50;78.50
38514;DHT22;24282;48.400;10.808;2023-02-02T04:14:49;4.50;77.90
38514;DHT22;24282;48.400;10.808;2023-02-02T04:17:14;4.50;78.00
38514;DHT22;24282;48.400;10.808;2023-02-02T04:19:40;4.60;77.70
38514;DHT22;24282;48.400;10.808;2023-02-02T04:22:06;4.60;77.50
38514;DHT22;24282;48.400;10.808;2023-02-02T04:24:32;4.50;78.00
38514;DHT22;24282;48.400;10.808;2023-02-02T04:26:58;4.60;78.30
38514;DHT22;24282;48.400;10.808;2023-02-02T04:29:23;4.60;78.70
38514;DHT22;24282;48.400;10.808;2023-02-02T04:31:50;4.50;79.50
38514;DHT22;24282;48.400;10.808;2023-02-02T04:34:16;4.50;80.20
38514;DHT22;24282;48.400;10.808;2023-02-02T04:36:42;4.50;80.00
38514;DHT22;24282;48.400;10.808;2023-02-02T04:39:10;4.50;79.80
38514;DHT22;24282;48.400;10.808;2023-02-02T04:41:36;4.50;80.00
38514;DHT22;24282;48.400;10.808;2023-02-02T04:44:01;4.50;79.70
38514;DHT22;24282;48.400;10.808;2023-02-02T04:46:28;4.50;80.20
38514;DHT22;24282;48.400;10.808;2023-02-02T04:48:53;4.50;80.60
38514;DHT22;24282;48.400;10.808;2023-02-02T04:51:19;4.50;80.30
38514;DHT22;24282;48.400;10.808;2023-02-02T04:53:45;4.40;80.40
38514;DHT22;24282;48.400;10.808;2023-02-02T04:56:14;4.50;80.10
38514;DHT22;24282;48.400;10.808;2023-02-02T04:58:40;4.40;80.30
38514;DHT22;24282;48.400;10.808;2023-02-02T05:01:16;4.40;80.70
38514;DHT22;24282;48.400;10.808;2023-02-02T05:03:42;4.40;80.70
38514;DHT22;24282;48.400;10.808;2023-02-02T05:06:08;4.40;80.60
38514;DHT22;24282;48.400;10.808;2023-02-02T05:08:34;4.50;80.30
38514;DHT22;24282;48.400;10.808;2023-02-02T05:11:04;4.50;79.90
38514;DHT22;24282;48.400;10.808;2023-02-02T05:13:30;4.50;79.80
38514;DHT22;24282;48.400;10.808;2023-02-02T05:15:56;4.50;79.80
38514;DHT22;24282;48.400;10.808;2023-02-02T05:18:22;4.50;79.70
38514;DHT22;24282;48.400;10.808;2023-02-02T05:20:50;4.50;79.40
38514;DHT22;24282;48.400;10.808;2023-02-02T05:23:17;4.50;79.20
38514;DHT22;24282;48.400;10.808;2023-02-02T05:25:43;4.60;79.00
38514;DHT22;24282;48.400;10.808;2023-02-02T05:28:08;4.60;78.80
38514;DHT22;24282;48.400;10.808;2023-02-02T05:30:34;4.70;78.60
38514;DHT22;24282;48.400;10.808;2023-02-02T05:33:00;4.60;78.60
38514;DHT22;24282;48.400;10.808;2023-02-02T05:35:25;4.70;78.60
38514;DHT22;24282;48.400;10.808;2023-02-02T05:37:51;4.80;78.40
38514;DHT22;24282;48.400;10.808;2023-02-02T05:40:17;4.70;78.80
38514;DHT22;24282;48.400;10.808;2023-02-02T05:42:47;4.70;79.10
38514;DHT22;24282;48.400;10.808;2023-02-02T05:45:14;4.60;79.30
38514;DHT22;24282;48.400;10.808;2023-02-02T05:47:39;4.70;79.10
38514;DHT22;24282;48.400;10.808;2023-02-02T05:50:05;4.60;79.60
38514;DHT22;24282;48.400;10.808;2023-02-02T05:52:33;4.50;80.10
38514;DHT22;24282;48.400;10.808;2023-02-02T05:54:59;4.50;80.30
38514;DHT22;24282;48.400;10.808;2023-02-02T05:57:25;4.60;79.70
38514;DHT22;24282;48.400;10.808;2023-02-02T05:59:53;4.60;79.90
38514;DHT22;24282;48.400;10.808;2023-02-02T06:02:18;4.60;79.60
38514;DHT22;24282;48.400;10.808;2023-02-02T06:04:44;4.60;79.80
38514;DHT22;24282;48.400;10.808;2023-02-02T06:07:10;4.70;79.40
38514;DHT22;24282;48.400;10.808;2023-02-02T06:09:37;4.70;79.70
38514;DHT22;24282;48.400;10.808;2023-02-02T06:12:03;4.60;79.70
38514;DHT22;24282;48.400;10.808;2023-02-02T06:14:29;4.50;80.10
38514;DHT22;24282;48.400;10.808;2023-02-02T06:16:55;4.60;79.80
38514;DHT22;24282;48.400;10.808;2023-02-02T06:19:20;4.50;80.00
38514;DHT22;24282;48.400;10.808;2023-02-02T06:21:46;4.60;79.80
38514;DHT22;24282;48.400;10.808;2023-02-02T06:24:12;4.60;79.70
38514;DHT22;24282;48.400;10.808;2023-02-02T06:26:37;4.50;80.00
38514;DHT22;24282;48.400;10.808;2023-02-02T06:29:03;4.60;80.40
38514;DHT22;24282;48.400;10.808;2023-02-02T06:31:29;4.50;80.70
38514;DHT22;24282;48.400;10.808;2023-02-02T06:33:56;4.60;80.70
38514;DHT22;24282;48.400;10.808;2023-02-02T06:36:24;4.60;80.70
38514;DHT22;24282;48.400;10.808;2023-02-02T06:38:51;4.60;80.60
38514;DHT22;24282;48.400;10.808;2023-02-02T06:41:18;4.60;80.60
38514;DHT22;24282;48.400;10.808;2023-02-02T06:43:45;4.50;81.20
38514;DHT22;24282;48.400;10.808;2023-02-02T06:46:11;4.60;80.60
38514;DHT22;24282;48.400;10.808;2023-02-02T06:48:40;4.60;80.80
38514;DHT22;24282;48.400;10.808;2023-02-02T06:51:06;4.50;80.70
38514;DHT22;24282;48.400;10.808;2023-02-02T06:53:33;4.50;81.10
38514;DHT22;24282;48.400;10.808;2023-02-02T06:56:04;4.50;81.00
38514;DHT22;24282;48.400;10.808;2023-02-02T06:58:31;4.50;81.00
38514;DHT22;24282;48.400;10.808;2023-02-02T07:01:11;4.50;80.50
38514;DHT22;24282;48.400;10.808;2023-02-02T07:03:37;4.50;80.20
38514;DHT22;24282;48.400;10.808;2023-02-02T07:06:29;4.60;79.90
38514;DHT22;24282;48.400;10.808;2023-02-02T07:08:55;4.50;80.10
38514;DHT22;24282;48.400;10.808;2023-02-02T07:11:21;4.60;79.80
38514;DHT22;24282;48.400;10.808;2023-02-02T07:13:48;4.50;80.00
38514;DHT22;24282;48.400;10.808;2023-02-02T07:16:16;4.50;79.90
38514;DHT22;24282;48.400;10.808;2023-02-02T07:18:42;4.50;79.60
38514;DHT22;24282;48.400;10.808;2023-02-02T07:21:18;4.70;79.10
38514;DHT22;24282;48.400;10.808;2023-02-02T07:23:45;4.60;79.40
38514;DHT22;24282;48.400;10.808;2023-02-02T07:26:12;4.50;79.80
38514;DHT22;24282;48.400;10.808;2023-02-02T07:28:39;4.50;79.90
38514;DHT22;24282;48.400;10.808;2023-02-02T07:31:20;4.50;79.70
38514;DHT22;24282;48.400;10.808;2023-02-02T07:33:46;4.70;79.20
38514;DHT22;24282;48.400;10.808;2023-02-02T07:36:14;4.70;79.30
38514;DHT22;24282;48.400;10.808;2023-02-02T07:38:44;4.70;79.00
38514;DHT22;24282;48.400;10.808;2023-02-02T07:41:10;4.70;78.70
38514;DHT22;24282;48.400;10.808;2023-02-02T07:43:36;4.80;78.60
38514;DHT22;24282;48.400;10.808;2023-02-02T07:46:04;4.70;78.40
38514;DHT22;24282;48.400;10.808;2023-02-02T07:48:33;4.70;79.00
38514;DHT22;24282;48.400;10.808;2023-02-02T07:51:00;4.80;78.70
38514;DHT22;24282;48.400;10.808;2023-02-02T07:53:27;4.80;78.70
38514;DHT22;24282;48.400;10.808;2023-02-02T07:55:53;4.80;78.90
38514;DHT22;24282;48.400;10.808;2023-02-02T07:58:18;4.80;78.90
38514;DHT22;24282;48.400;10.808;2023-02-02T08:00:44;5.00;78.70
38514;DHT22;24282;48.400;10.808;2023-02-02T08:03:11;5.00;78.70
38514;DHT22;24282;48.400;10.808;2023-02-02T08:05:36;4.90;78.50
38514;DHT22;24282;48.400;10.808;2023-02-02T08:08:02;5.00;78.50
38514;DHT22;24282;48.400;10.808;2023-02-02T08:10:28;5.00;78.60
38514;DHT22;24282;48.400;10.808;2023-02-02T08:12:54;5.00;78.80
38514;DHT22;24282;48.400;10.808;2023-02-02T08:15:19;5.00;78.90
38514;DHT22;24282;48.400;10.808;2023-02-02T08:17:45;5.00;79.10
38514;DHT22;24282;48.400;10.808;2023-02-02T08:20:14;5.00;79.10
38514;DHT22;24282;48.400;10.808;2023-02-02T08:22:40;5.00;79.10
38514;DHT22;24282;48.400;10.808;2023-02-02T08:25:07;5.00;79.50
38514;DHT22;24282;48.400;10.808;2023-02-02T08:27:32;5.00;79.20
38514;DHT22;24282;48.400;10.808;2023-02-02T08:29:58;5.10;79.40
38514;DHT22;24282;48.400;10.808;2023-02-02T08:32:24;5.10;79.50
38514;DHT22;24282;48.400;10.808;2023-02-02T08:34:50;5.00;79.70
38514;DHT22;24282;48.400;10.808;2023-02-02T08:37:18;5.00;80.10
38514;DHT22;24282;48.400;10.808;2023-02-02T08:39:44;4.90;80.40
38514;DHT22;24282;48.400;10.808;2023-02-02T08:42:10;4.90;80.70
38514;DHT22;24282;48.400;10.808;2023-02-02T08:44:35;4.90;81.10
38514;DHT22;24282;48.400;10.808;2023-02-02T08:47:01;5.00;81.00
38514;DHT22;24282;48.400;10.808;2023-02-02T08:49:27;4.90;81.00
38514;DHT22;24282;48.400;10.808;2023-02-02T08:51:53;4.90;81.20
38514;DHT22;24282;48.400;10.808;2023-02-02T08:54:19;5.00;80.80
38514;DHT22;24282;48.400;10.808;2023-02-02T08:56:44;5.00;81.20
38514;DHT22;24282;48.400;10.808;2023-02-02T08:59:10;4.90;81.20
38514;DHT22;24282;48.400;10.808;2023-02-02T09:01:36;4.90;81.10
38514;DHT22;24282;48.400;10.808;2023-02-02T09:04:07;5.00;80.90
38514;DHT22;24282;48.400;10.808;2023-02-02T09:06:36;4.90;81.40
38514;DHT22;24282;48.400;10.808;2023-02-02T09:09:04;4.90;81.40
38514;DHT22;24282;48.400;10.808;2023-02-02T09:11:30;4.90;81.60
38514;DHT22;24282;48.400;10.808;2023-02-02T09:13:57;4.90;81.60
38514;DHT22;24282;48.400;10.808;2023-02-02T09:16:24;5.00;82.00
38514;DHT22;24282;48.400;10.808;2023-02-02T09:18:51;5.00;81.40
38514;DHT22;24282;48.400;10.808;2023-02-02T09:21:18;5.00;81.60
38514;DHT22;24282;48.400;10.808;2023-02-02T09:23:46;5.00;81.70
38514;DHT22;24282;48.400;10.808;2023-02-02T09:26:17;4.90;81.60
38514;DHT22;24282;48.400;10.808;2023-02-02T09:28:52;4.90;82.10
38514;DHT22;24282;48.400;10.808;2023-02-02T09:31:18;5.00;81.80
38514;DHT22;24282;48.400;10.808;2023-02-02T09:33:43;5.00;81.60
38514;DHT22;24282;48.400;10.808;2023-02-02T09:36:20;5.00;81.30
38514;DHT22;24282;48.400;10.808;2023-02-02T09:38:47;5.10;81.00
38514;DHT22;24282;48.400;10.808;2023-02-02T09:52:26;5.10;80.80
38514;DHT22;24282;48.400;10.808;2023-02-02T09:54:58;5.10;80.80
38514;DHT22;24282;48.400;10.808;2023-02-02T09:57:29;5.10;80.50
38514;DHT22;24282;48.400;10.808;2023-02-02T09:59:55;5.20;80.10
38514;DHT22;24282;48.400;10.808;2023-02-02T10:02:36;5.20;80.10
38514;DHT22;24282;48.400;10.808;2023-02-02T10:05:15;5.20;80.20
38514;DHT22;24282;48.400;10.808;2023-02-02T10:07:44;5.30;79.90
38514;DHT22;24282;48.400;10.808;2023-02-02T10:10:22;5.30;80.30
38514;DHT22;24282;48.400;10.808;2023-02-02T10:13:13;5.30;79.90
38514;DHT22;24282;48.400;10.808;2023-02-02T10:23:54;5.30;81.70
38514;DHT22;24282;48.400;10.808;2023-02-02T10:26:41;5.40;81.70
38514;DHT22;24282;48.400;10.808;2023-02-02T10:34:41;5.40;81.70
38514;DHT22;24282;48.400;10.808;2023-02-02T10:37:31;5.30;82.10
38514;DHT22;24282;48.400;10.808;2023-02-02T10:40:25;5.30;81.70
38514;DHT22;24282;48.400;10.808;2023-02-02T10:43:15;5.40;82.10
38514;DHT22;24282;48.400;10.808;2023-02-02T10:46:03;5.40;81.40
38514;DHT22;24282;48.400;10.808;2023-02-02T10:48:34;5.30;82.30
38514;DHT22;24282;48.400;10.808;2023-02-02T10:51:11;5.30;82.60
38514;DHT22;24282;48.400;10.808;2023-02-02T10:53:39;5.30;82.80
38514;DHT22;24282;48.400;10.808;2023-02-02T10:56:08;5.30;82.60
38514;DHT22;24282;48.400;10.808;2023-02-02T10:59:06;5.30;82.50
38514;DHT22;24282;48.400;10.808;2023-02-02T11:01:34;5.20;82.40
38514;DHT22;24282;48.400;10.808;2023-02-02T11:04:00;5.30;82.60
38514;DHT22;24282;48.400;10.808;2023-02-02T11:06:44;5.30;82.50
38514;DHT22;24282;48.400;10.808;2023-02-02T11:09:23;5.20;83.30
38514;DHT22;24282;48.400;10.808;2023-02-02T11:11:53;5.30;82.60
38514;DHT22;24282;48.400;10.808;2023-02-02T11:14:41;5.20;82.90
38514;DHT22;24282;48.400;10.808;2023-02-02T11:17:19;5.30;83.70
38514;DHT22;24282;48.400;10.808;2023-02-02T11:19:46;5.30;83.50
38514;DHT22;24282;48.400;10.808;2023-02-02T11:22:33;5.30;83.50
38514;DHT22;24282;48.400;10.808;2023-02-02T11:25:28;5.30;83.30
38514;DHT22;24282;48.400;10.808;2023-02-02T11:27:57;5.40;82.60
38514;DHT22;24282;48.400;10.808;2023-02-02T11:30:34;5.30;83.30
38514;DHT22;24282;48.400;10.808;2023-02-02T11:33:30;5.30;83.10
38514;DHT22;24282;48.400;10.808;2023-02-02T11:36:02;5.30;83.30
38514;DHT22;24282;48.400;10.808;2023-02-02T11:38:28;5.30;83.30
38514;DHT22;24282;48.400;10.808;2023-02-02T11:43:36;5.30;83.50
38514;DHT22;24282;48.400;10.808;2023-02-02T11:46:27;5.30;83.20
38514;DHT22;24282;48.400;10.808;2023-02-02T11:51:26;5.30;83.90
38514;DHT22;24282;48.400;10.808;2023-02-02T11:56:30;5.30;84.10
38514;DHT22;24282;48.400;10.808;2023-02-02T11:58:57;5.40;83.30
38514;DHT22;24282;48.400;10.808;2023-02-02T12:01:38;5.40;83.50
38514;DHT22;24282;48.400;10.808;2023-02-02T12:06:42;5.40;83.50
38514;DHT22;24282;48.400;10.808;2023-02-02T12:09:20;5.50;83.70
38514;DHT22;24282;48.400;10.808;2023-02-02T12:17:36;5.40;84.00
38514;DHT22;24282;48.400;10.808;2023-02-02T12:26:02;5.30;84.50
38514;DHT22;24282;48.400;10.808;2023-02-02T12:31:18;5.30;84.60
38514;DHT22;24282;48.400;10.808;2023-02-02T12:53:32;5.20;85.50
38514;DHT22;24282;48.400;10.808;2023-02-02T13:09:39;5.30;85.30
38514;DHT22;24282;48.400;10.808;2023-02-02T13:12:10;5.20;85.40
38514;DHT22;24282;48.400;10.808;2023-02-02T13:14:49;5.20;85.80
38514;DHT22;24282;48.400;10.808;2023-02-02T13:17:35;5.20;86.10
38514;DHT22;24282;48.400;10.808;2023-02-02T13:20:06;5.10;86.20
38514;DHT22;24282;48.400;10.808;2023-02-02T13:22:41;5.10;86.00
38514;DHT22;24282;48.400;10.808;2023-02-02T13:25:21;5.20;85.80
38514;DHT22;24282;48.400;10.808;2023-02-02T13:27:48;5.20;85.60
38514;DHT22;24282;48.400;10.808;2023-02-02T13:30:30;5.10;85.70
38514;DHT22;24282;48.400;10.808;2023-02-02T13:33:06;5.10;86.20
38514;DHT22;24282;48.400;10.808;2023-02-02T13:35:56;5.00;86.20
38514;DHT22;24282;48.400;10.808;2023-02-02T13:38:27;5.10;85.90
38514;DHT22;24282;48.400;10.808;2023-02-02T13:40:58;5.10;85.50
38514;DHT22;24282;48.400;10.808;2023-02-02T13:43:48;5.10;85.90
38514;DHT22;24282;48.400;10.808;2023-02-02T13:46:26;5.10;85.90
38514;DHT22;24282;48.400;10.808;2023-02-02T13:49:32;5.10;85.80
38514;DHT22;24282;48.400;10.808;2023-02-02T13:55:01;5.20;85.50
38514;DHT22;24282;48.400;10.808;2023-02-02T13:57:40;5.20;86.00
38514;DHT22;24282;48.400;10.808;2023-02-02T14:00:27;5.30;85.60
38514;DHT22;24282;48.400;10.808;2023-02-02T14:02:59;5.20;85.70
38514;DHT22;24282;48.400;10.808;2023-02-02T14:05:37;5.20;85.80
38514;DHT22;24282;48.400;10.808;2023-02-02T14:08:04;5.10;86.10
38514;DHT22;24282;48.400;10.808;2023-02-02T14:10:37;5.20;86.00
38514;DHT22;24282;48.400;10.808;2023-02-02T14:15:58;5.20;86.00
38514;DHT22;24282;48.400;10.808;2023-02-02T14:18:51;5.20;85.60
38514;DHT22;24282;48.400;10.808;2023-02-02T14:34:54;5.20;85.20
38514;DHT22;24282;48.400;10.808;2023-02-02T14:42:29;5.10;85.30
38514;DHT22;24282;48.400;10.808;2023-02-02T14:45:28;5.20;85.10
38514;DHT22;24282;48.400;10.808;2023-02-02T14:58:32;5.10;86.00
38514;DHT22;24282;48.400;10.808;2023-02-02T15:14:36;5.10;85.80
38514;DHT22;24282;48.400;10.808;2023-02-02T15:25:15;5.10;86.20
38514;DHT22;24282;48.400;10.808;2023-02-02T15:27:50;5.10;86.40
38514;DHT22;24282;48.400;10.808;2023-02-02T15:30:16;5.10;86.10
38514;DHT22;24282;48.400;10.808;2023-02-02T15:32:42;5.10;86.10
38514;DHT22;24282;48.400;10.808;2023-02-02T15:35:18;5.00;86.20
38514;DHT22;24282;48.400;10.808;2023-02-02T15:37:49;5.00;86.00
38514;DHT22;24282;48.400;10.808;2023-02-02T15:40:22;5.00;86.20
38514;DHT22;24282;48.400;10.808;2023-02-02T15:42:53;5.00;86.30
38514;DHT22;24282;48.400;10.808;2023-02-02T15:48:26;5.10;85.70
38514;DHT22;24282;48.400;10.808;2023-02-02T15:50:58;5.10;85.60
38514;DHT22;24282;48.400;10.808;2023-02-02T15:55:57;5.00;85.60
38514;DHT22;24282;48.400;10.808;2023-02-02T15:58:29;5.10;85.30
38514;DHT22;24282;48.400;10.808;2023-02-02T16:01:15;5.10;85.30
38514;DHT22;24282;48.400;10.808;2023-02-02T16:06:10;5.00;85.90
38514;DHT22;24282;48.400;10.808;2023-02-02T16:08:37;5.00;85.90
38514;DHT22;24282;48.400;10.808;2023-02-02T16:11:11;5.00;85.90
38514;DHT22;24282;48.400;10.808;2023-02-02T16:13:39;5.00;86.00
38514;DHT22;24282;48.400;10.808;2023-02-02T16:16:20;5.00;85.90
38514;DHT22;24282;48.400;10.808;2023-02-02T16:18:46;5.00;85.90
38514;DHT22;24282;48.400;10.808;2023-02-02T16:21:19;5.00;85.80
38514;DHT22;24282;48.400;10.808;2023-02-02T16:23:47;5.00;85.70
38514;DHT22;24282;48.400;10.808;2023-02-02T16:26:14;5.10;85.70
38514;DHT22;24282;48.400;10.808;2023-02-02T16:28:41;5.00;85.60
38514;DHT22;24282;48.400;10.808;2023-02-02T16:31:07;5.00;85.60
38514;DHT22;24282;48.400;10.808;2023-02-02T16:33:36;5.00;85.50
38514;DHT22;24282;48.400;10.808;2023-02-02T16:38:40;5.00;85.10
38514;DHT22;24282;48.400;10.808;2023-02-02T16:41:11;5.10;85.00
38514;DHT22;24282;48.400;10.808;2023-02-02T16:43:39;5.10;85.10
38514;DHT22;24282;48.400;10.808;2023-02-02T16:46:08;5.00;85.20
38514;DHT22;24282;48.400;10.808;2023-02-02T16:51:10;5.10;85.00
38514;DHT22;24282;48.400;10.808;2023-02-02T16:56:40;5.10;84.50
38514;DHT22;24282;48.400;10.808;2023-02-02T16:59:23;5.20;84.30
38514;DHT22;24282;48.400;10.808;2023-02-02T17:04:52;5.20;84.20
38514;DHT22;24282;48.400;10.808;2023-02-02T17:07:21;5.20;84.20
38514;DHT22;24282;48.400;10.808;2023-02-02T17:09:47;5.20;84.30
38514;DHT22;24282;48.400;10.808;2023-02-02T17:15:10;5.20;84.60
38514;DHT22;24282;48.400;10.808;2023-02-02T17:17:48;5.10;84.60
38514;DHT22;24282;48.400;10.808;2023-02-02T17:20:18;5.10;84.80
38514;DHT22;24282;48.400;10.808;2023-02-02T17:23:04;5.10;84.90
38514;DHT22;24282;48.400;10.808;2023-02-02T17:28:00;5.20;84.50
38514;DHT22;24282;48.400;10.808;2023-02-02T17:30:27;5.20;84.40
38514;DHT22;24282;48.400;10.808;2023-02-02T17:32:53;5.20;84.00
38514;DHT22;24282;48.400;10.808;2023-02-02T17:35:22;5.20;84.20
38514;DHT22;24282;48.400;10.808;2023-02-02T17:37:48;5.20;83.90
38514;DHT22;24282;48.400;10.808;2023-02-02T17:40:18;5.20;84.10
38514;DHT22;24282;48.400;10.808;2023-02-02T17:42:47;5.20;83.90
38514;DHT22;24282;48.400;10.808;2023-02-02T17:45:20;5.20;84.30
38514;DHT22;24282;48.400;10.808;2023-02-02T17:47:48;5.10;84.40
38514;DHT22;24282;48.400;10.808;2023-02-02T17:50:14;5.20;84.10
38514;DHT22;24282;48.400;10.808;2023-02-02T17:52:40;5.20;84.00
38514;DHT22;24282;48.400;10.808;2023-02-02T17:55:13;5.20;84.50
38514;DHT22;24282;48.400;10.808;2023-02-02T17:57:39;5.20;84.80
38514;DHT22;24282;48.400;10.808;2023-02-02T18:00:05;5.10;84.90
38514;DHT22;24282;48.400;10.808;2023-02-02T18:02:31;5.20;84.70
38514;DHT22;24282;48.400;10.808;2023-02-02T18:04:57;5.10;85.10
38514;DHT22;24282;48.400;10.808;2023-02-02T18:07:23;5.10;85.20
38514;DHT22;24282;48.400;10.808;2023-02-02T18:09:48;5.10;84.90
38514;DHT22;24282;48.400;10.808;2023-02-02T18:12:14;5.10;85.10
38514;DHT22;24282;48.400;10.808;2023-02-02T18:14:40;5.10;85.00
38514;DHT22;24282;48.400;10.808;2023-02-02T18:17:05;5.10;85.30
38514;DHT22;24282;48.400;10.808;2023-02-02T18:19:32;5.10;85.20
38514;DHT22;24282;48.400;10.808;2023-02-02T18:21:58;5.10;85.50
38514;DHT22;24282;48.400;10.808;2023-02-02T18:24:24;5.10;85.50
38514;DHT22;24282;48.400;10.808;2023-02-02T18:26:52;5.00;85.70
38514;DHT22;24282;48.400;10.808;2023-02-02T18:29:18;5.00;86.00
38514;DHT22;24282;48.400;10.808;2023-02-02T18:31:44;5.00;85.80
38514;DHT22;24282;48.400;10.808;2023-02-02T18:34:10;5.00;85.90
38514;DHT22;24282;48.400;10.808;2023-02-02T18:36:35;5.00;86.00
38514;DHT22;24282;48.400;10.808;2023-02-02T18:39:01;5.00;86.30
38514;DHT22;24282;48.400;10.808;2023-02-02T18:41:27;4.90;86.60
38514;DHT22;24282;48.400;10.808;2023-02-02T18:43:56;4.90;87.00
38514;DHT22;24282;48.400;10.808;2023-02-02T18:46:22;4.90;86.60
38514;DHT22;24282;48.400;10.808;2023-02-02T18:48:48;5.00;86.40
38514;DHT22;24282;48.400;10.808;2023-02-02T18:51:15;4.90;86.60
38514;DHT22;24282;48.400;10.808;2023-02-02T18:53:45;4.90;86.80
38514;DHT22;24282;48.400;10.808;2023-02-02T18:56:12;4.80;87.10
38514;DHT22;24282;48.400;10.808;2023-02-02T18:58:39;4.80;87.40